createdAt,value
2018-03-07T00:01:12.634Z,86.90
2018-03-07T00:03:41.062Z,90.40
2018-03-07T00:06:10.068Z,92.10
2018-03-07T00:08:37.298Z,87.13
2018-03-07T00:11:04.212Z,85.80
2018-03-07T00:13:31.473Z,85.73
2018-03-07T00:15:59.333Z,87.20
2018-03-07T00:18:26.545Z,81.97
2018-03-07T00:20:53.759Z,88.90
2018-03-07T00:23:21.932Z,91.00
2018-03-07T00:25:49.798Z,84.83
2018-03-07T00:28:18.830Z,98.77
2018-03-07T00:30:46.513Z,88.60
2018-03-07T00:33:13.735Z,87.27
2018-03-07T00:35:40.968Z,91.03
2018-03-07T00:38:08.963Z,89.57
2018-03-07T00:40:36.190Z,95.23
2018-03-07T00:43:03.413Z,90.63
2018-03-07T00:45:30.625Z,98.77
2018-03-07T00:47:58.117Z,95.33
2018-03-07T00:50:25.328Z,89.97
2018-03-07T00:52:52.558Z,90.03
2018-03-07T00:55:19.793Z,91.37
2018-03-07T00:57:47.005Z,95.03
2018-03-07T01:00:14.234Z,97.23
2018-03-07T01:02:41.443Z,96.07
2018-03-07T01:07:54.514Z,85.00
2018-03-07T01:10:21.732Z,102.57
2018-03-07T01:12:48.953Z,94.50
2018-03-07T01:15:16.210Z,93.93
2018-03-07T01:17:43.441Z,98.50
2018-03-07T01:20:10.680Z,97.33
2018-03-07T01:22:37.908Z,90.10
2018-03-07T01:27:38.354Z,90.00
2018-03-07T01:30:08.963Z,98.47
2018-03-07T01:32:36.181Z,93.07
2018-03-07T01:35:03.405Z,102.53
2018-03-07T01:37:30.624Z,92.30
2018-03-07T01:39:58.520Z,95.97
2018-03-07T01:42:25.739Z,101.90
2018-03-07T01:44:54.666Z,94.87
2018-03-07T01:47:21.879Z,96.87
2018-03-07T01:49:49.854Z,101.10
2018-03-07T01:52:18.388Z,92.57
2018-03-07T01:54:46.534Z,93.50
2018-03-07T01:57:13.770Z,101.27
2018-03-07T01:59:42.202Z,111.87
2018-03-07T02:02:09.425Z,96.07
2018-03-07T02:04:36.678Z,100.63
2018-03-07T02:07:03.889Z,103.60
2018-03-07T02:09:31.120Z,111.60
2018-03-07T02:11:58.350Z,102.33
2018-03-07T02:14:25.581Z,109.83
2018-03-07T02:16:53.001Z,100.87
2018-03-07T02:19:20.227Z,99.80
2018-03-07T02:21:48.040Z,112.30
2018-03-07T02:24:16.042Z,108.00
2018-03-07T02:26:43.272Z,108.70
2018-03-07T02:29:10.484Z,104.73
2018-03-07T02:31:37.720Z,105.37
2018-03-07T02:34:05.470Z,103.97
2018-03-07T02:36:34.172Z,101.37
2018-03-07T02:39:01.946Z,105.43
2018-03-07T02:41:29.429Z,114.37
2018-03-07T02:43:56.647Z,115.80
2018-03-07T02:46:23.886Z,127.83
2018-03-07T02:48:51.132Z,117.17
2018-03-07T02:51:18.566Z,122.00
2018-03-07T02:53:45.786Z,104.80
2018-03-07T02:56:13.019Z,113.53
2018-03-07T02:58:39.933Z,109.70
2018-03-07T03:01:07.158Z,120.87
2018-03-07T03:03:34.384Z,109.27
2018-03-07T03:06:01.619Z,107.47
2018-03-07T03:08:28.867Z,121.10
2018-03-07T03:10:56.097Z,104.43
2018-03-07T03:13:23.324Z,111.07
2018-03-07T03:15:50.545Z,110.53
2018-03-07T03:18:17.777Z,114.77
2018-03-07T03:20:45.505Z,112.47
2018-03-07T03:23:12.724Z,112.33
2018-03-07T03:25:39.967Z,110.60
2018-03-07T03:28:07.903Z,109.77
2018-03-07T03:30:36.093Z,116.63
2018-03-07T03:33:04.517Z,107.57
2018-03-07T03:35:31.734Z,117.47
2018-03-07T03:37:58.945Z,115.33
2018-03-07T03:40:26.169Z,106.43
2018-03-07T03:42:53.396Z,101.23
2018-03-07T03:45:20.621Z,120.57
2018-03-07T03:47:47.852Z,112.83
2018-03-07T03:50:15.074Z,111.37
2018-03-07T03:52:42.304Z,117.93
2018-03-07T03:55:11.154Z,110.47
2018-03-07T03:57:38.379Z,112.17
2018-03-07T04:00:12.500Z,105.20
2018-03-07T04:02:39.742Z,110.90
2018-03-07T04:05:09.742Z,107.47
2018-03-07T04:07:36.965Z,107.37
2018-03-07T04:10:06.865Z,115.90
2018-03-07T04:12:34.981Z,104.67
2018-03-07T04:15:02.202Z,100.77
2018-03-07T04:17:29.426Z,96.67
2018-03-07T04:19:56.657Z,107.07
2018-03-07T04:22:23.929Z,102.17
2018-03-07T04:24:52.046Z,99.87
2018-03-07T04:27:19.264Z,98.80
2018-03-07T04:29:46.488Z,104.10
2018-03-07T04:32:13.721Z,95.93
2018-03-07T04:34:40.958Z,93.37
2018-03-07T04:37:08.193Z,92.53
2018-03-07T04:39:35.405Z,95.37
2018-03-07T04:42:02.637Z,97.40
2018-03-07T04:44:29.856Z,91.43
2018-03-07T04:46:57.078Z,107.53
2018-03-07T04:49:24.326Z,101.57
2018-03-07T04:51:51.549Z,103.77
2018-03-07T04:54:18.804Z,113.50
2018-03-07T04:56:45.693Z,98.20
2018-03-07T04:59:12.908Z,107.10
2018-03-07T05:01:40.146Z,108.00
2018-03-07T05:04:07.380Z,96.60
2018-03-07T05:06:34.630Z,103.53
2018-03-07T05:09:01.850Z,114.33
2018-03-07T05:11:29.432Z,112.37
2018-03-07T05:13:56.713Z,103.27
2018-03-07T05:16:23.949Z,115.80
2018-03-07T05:18:51.185Z,115.43
2018-03-07T05:21:18.241Z,117.67
2018-03-07T05:23:45.467Z,115.43
2018-03-07T05:26:12.707Z,115.03
2018-03-07T05:28:40.136Z,103.90
2018-03-07T05:31:07.373Z,100.53
2018-03-07T05:33:34.596Z,115.27
2018-03-07T05:36:01.821Z,117.07
2018-03-07T05:38:30.025Z,105.33
2018-03-07T05:41:00.150Z,96.20
2018-03-07T05:43:27.369Z,114.57
2018-03-07T05:45:54.685Z,107.00
2018-03-07T05:48:21.904Z,111.10
2018-03-07T05:50:49.120Z,108.50
2018-03-07T05:53:16.714Z,106.47
2018-03-07T05:55:44.743Z,100.20
2018-03-07T05:58:12.228Z,94.50
2018-03-07T06:00:39.452Z,95.57
2018-03-07T06:03:06.719Z,104.33
2018-03-07T06:05:33.954Z,108.97
2018-03-07T06:08:01.181Z,103.53
2018-03-07T06:10:28.401Z,107.07
2018-03-07T06:12:55.626Z,103.97
2018-03-07T06:15:22.858Z,98.33
2018-03-07T06:17:50.134Z,104.20
2018-03-07T06:20:17.373Z,101.03
2018-03-07T06:22:44.597Z,94.40
2018-03-07T06:25:11.817Z,112.87
2018-03-07T06:27:39.061Z,100.60
2018-03-07T06:30:08.970Z,99.67
2018-03-07T06:32:36.249Z,107.20
2018-03-07T06:35:03.469Z,99.77
2018-03-07T06:37:31.305Z,102.50
2018-03-07T06:39:58.524Z,96.80
2018-03-07T06:42:26.071Z,95.20
2018-03-07T06:44:53.292Z,102.40
2018-03-07T06:47:20.514Z,95.93
2018-03-07T06:49:47.850Z,93.13
2018-03-07T06:52:15.081Z,99.17
2018-03-07T06:54:42.313Z,95.07
2018-03-07T06:57:09.537Z,104.37
2018-03-07T06:59:36.766Z,102.13
2018-03-07T07:02:04.024Z,102.00
2018-03-07T07:04:31.237Z,102.50
2018-03-07T07:06:58.469Z,104.47
2018-03-07T07:09:25.692Z,97.70
2018-03-07T07:11:52.918Z,93.67
2018-03-07T07:14:20.150Z,92.13
2018-03-07T07:16:47.397Z,102.60
2018-03-07T07:19:14.610Z,94.43
2018-03-07T07:21:41.826Z,91.10
2018-03-07T07:24:09.041Z,102.90
2018-03-07T07:26:36.265Z,111.03
2018-03-07T07:29:03.789Z,97.43
2018-03-07T07:31:31.008Z,101.70
2018-03-07T07:33:58.239Z,88.93
2018-03-07T07:36:25.461Z,91.87
2018-03-07T07:38:53.079Z,96.17
2018-03-07T07:41:20.292Z,89.57
2018-03-07T07:43:47.513Z,102.80
2018-03-07T07:46:14.733Z,97.90
2018-03-07T07:48:42.694Z,103.03
2018-03-07T07:51:09.929Z,102.23
2018-03-07T07:53:37.511Z,113.90
2018-03-07T07:56:04.750Z,96.33
2018-03-07T07:58:31.977Z,98.50
2018-03-07T08:00:59.203Z,96.83
2018-03-07T08:03:26.431Z,98.77
2018-03-07T08:05:53.993Z,91.90
2018-03-07T08:08:21.355Z,101.00
2018-03-07T08:10:48.589Z,240.13
2018-03-07T08:13:16.274Z,142.00
2018-03-07T08:15:43.501Z,107.67
2018-03-07T08:18:10.761Z,105.47
2018-03-07T08:20:38.144Z,104.67
2018-03-07T08:23:05.798Z,109.27
2018-03-07T08:25:33.024Z,108.90
2018-03-07T08:28:00.241Z,96.17
2018-03-07T08:30:27.485Z,110.20
2018-03-07T08:32:54.720Z,104.83
2018-03-07T08:35:21.960Z,96.80
2018-03-07T08:37:49.224Z,95.00
2018-03-07T08:40:16.437Z,99.17
2018-03-07T08:42:43.657Z,99.30
2018-03-07T08:45:11.831Z,91.60
2018-03-07T08:47:39.053Z,106.37
2018-03-07T08:50:09.101Z,100.83
2018-03-07T08:52:36.418Z,102.07
2018-03-07T08:55:03.920Z,106.13
2018-03-07T08:57:31.917Z,106.70
2018-03-07T08:59:59.136Z,95.97
2018-03-07T09:02:26.358Z,90.63
2018-03-07T09:04:53.594Z,95.63
2018-03-07T09:07:20.841Z,90.63
2018-03-07T09:09:48.897Z,100.03
2018-03-07T09:12:16.133Z,114.23
2018-03-07T09:14:43.357Z,110.90
2018-03-07T09:17:10.589Z,93.90
2018-03-07T09:19:38.485Z,95.80
2018-03-07T09:22:05.730Z,109.93
2018-03-07T09:24:32.946Z,110.17
2018-03-07T09:27:00.185Z,108.03
2018-03-07T09:29:27.421Z,108.33
2018-03-07T09:31:54.656Z,105.00
2018-03-07T09:34:22.518Z,114.30
2018-03-07T09:36:50.497Z,101.50
2018-03-07T09:39:17.734Z,105.60
2018-03-07T09:41:44.959Z,107.20
2018-03-07T09:44:12.185Z,118.93
2018-03-07T09:46:39.417Z,105.70
2018-03-07T09:49:06.652Z,128.33
2018-03-07T09:51:33.895Z,108.00
2018-03-07T09:54:02.117Z,124.27
2018-03-07T09:56:29.404Z,100.33
2018-03-07T09:58:57.857Z,105.23
2018-03-07T10:01:25.086Z,133.70
2018-03-07T10:03:52.589Z,105.10
2018-03-07T10:06:19.810Z,112.47
2018-03-07T10:08:47.562Z,104.13
2018-03-07T10:11:15.209Z,104.60
2018-03-07T10:13:42.430Z,108.43
2018-03-07T10:16:09.684Z,109.83
2018-03-07T10:18:36.908Z,106.90
2018-03-07T10:21:04.231Z,121.27
2018-03-07T10:23:31.580Z,134.50
2018-03-07T10:25:58.811Z,122.83
2018-03-07T10:28:26.040Z,101.60
2018-03-07T10:30:53.272Z,128.33
2018-03-07T10:33:26.261Z,131.93
2018-03-07T10:35:53.496Z,110.60
2018-03-07T10:38:20.716Z,100.63
2018-03-07T10:40:47.962Z,112.57
2018-03-07T10:43:15.240Z,116.60
2018-03-07T10:45:42.494Z,106.50
2018-03-07T10:48:09.721Z,104.97
2018-03-07T10:50:36.949Z,99.13
2018-03-07T10:53:04.182Z,90.20
2018-03-07T10:55:31.401Z,92.53
2018-03-07T10:57:58.621Z,93.70
2018-03-07T11:00:31.305Z,91.67
2018-03-07T11:02:59.149Z,108.97
2018-03-07T11:05:26.378Z,85.73
2018-03-07T11:07:53.591Z,85.37
2018-03-07T11:10:20.823Z,88.20
2018-03-07T11:12:48.037Z,75.43
2018-03-07T11:15:15.258Z,79.43
2018-03-07T11:17:42.832Z,72.20
2018-03-07T11:20:12.280Z,75.77
2018-03-07T11:22:39.529Z,67.50
2018-03-07T11:25:15.041Z,70.23
2018-03-07T11:27:42.267Z,68.97
2018-03-07T11:30:14.640Z,64.60
2018-03-07T11:32:41.889Z,53.23
2018-03-07T11:35:10.470Z,63.27
2018-03-07T11:37:38.714Z,89.47
2018-03-07T11:40:07.319Z,96.13
2018-03-07T11:42:36.964Z,73.53
2018-03-07T11:45:06.287Z,65.70
2018-03-07T11:47:33.669Z,70.53
2018-03-07T11:50:00.914Z,70.70
2018-03-07T11:52:28.141Z,56.43
2018-03-07T11:54:55.358Z,64.07
2018-03-07T11:57:22.597Z,61.07
2018-03-07T11:59:49.830Z,59.63
2018-03-07T12:02:18.168Z,58.07
2018-03-07T12:04:45.390Z,50.27
2018-03-07T12:07:12.650Z,47.70
2018-03-07T12:09:40.076Z,45.83
2018-03-07T12:12:07.296Z,57.60
2018-03-07T12:14:34.513Z,43.50
2018-03-07T12:17:01.753Z,48.70
2018-03-07T12:19:28.992Z,48.10
2018-03-07T12:21:56.216Z,39.30
2018-03-07T12:24:23.433Z,37.10
2018-03-07T12:26:50.670Z,34.77
2018-03-07T12:29:17.883Z,28.37
2018-03-07T12:31:47.115Z,32.13
2018-03-07T12:34:14.335Z,36.60
2018-03-07T12:36:41.570Z,34.53
2018-03-07T12:39:08.806Z,40.43
2018-03-07T12:41:36.033Z,38.47
2018-03-07T12:44:03.251Z,43.37
2018-03-07T12:46:30.493Z,50.97
2018-03-07T12:48:57.397Z,38.90
2018-03-07T12:51:24.634Z,44.70
2018-03-07T12:53:51.855Z,48.07
2018-03-07T12:56:19.072Z,51.07
2018-03-07T12:58:46.312Z,50.03
2018-03-07T13:01:13.532Z,45.03
2018-03-07T13:03:40.943Z,44.43
2018-03-07T13:06:08.232Z,44.87
2018-03-07T13:08:35.460Z,36.00
2018-03-07T13:11:02.692Z,33.30
2018-03-07T13:13:30.557Z,30.70
2018-03-07T13:15:57.774Z,24.77
2018-03-07T13:18:25.006Z,33.00
2018-03-07T13:20:52.225Z,50.73
2018-03-07T13:23:19.473Z,42.73
2018-03-07T13:25:46.705Z,42.90
2018-03-07T13:28:13.967Z,46.83
2018-03-07T13:30:41.356Z,46.70
2018-03-07T13:33:08.584Z,63.57
2018-03-07T13:35:35.885Z,41.13
2018-03-07T13:38:03.115Z,54.33
2018-03-07T13:40:30.335Z,47.00
2018-03-07T13:42:57.563Z,50.20
2018-03-07T13:45:24.986Z,51.93
2018-03-07T13:47:52.214Z,54.30
2018-03-07T13:50:19.440Z,50.33
2018-03-07T13:52:46.698Z,35.37
2018-03-07T13:55:13.950Z,38.23
2018-03-07T13:57:41.373Z,44.50
2018-03-07T14:00:14.620Z,42.40
2018-03-07T14:02:41.870Z,66.27
2018-03-07T14:05:15.571Z,55.80
2018-03-07T14:07:43.449Z,65.73
2018-03-07T14:10:12.905Z,52.67
2018-03-07T14:12:40.120Z,51.43
2018-03-07T14:15:10.089Z,76.93
2018-03-07T14:17:37.317Z,61.70
2018-03-07T14:20:05.436Z,58.30
2018-03-07T14:22:32.671Z,54.50
2018-03-07T14:25:00.089Z,67.07
2018-03-07T14:27:27.329Z,78.87
2018-03-07T14:29:54.563Z,72.87
2018-03-07T14:32:21.827Z,58.70
2018-03-07T14:34:49.081Z,67.43
2018-03-07T14:37:16.302Z,67.77
2018-03-07T14:39:43.520Z,45.97
2018-03-07T14:42:10.756Z,58.90
2018-03-07T14:44:37.998Z,61.70
2018-03-07T14:47:05.217Z,61.10
2018-03-07T14:49:32.450Z,61.80
2018-03-07T14:51:59.915Z,60.47
2018-03-07T14:54:27.133Z,56.73
2018-03-07T14:56:54.364Z,65.70
2018-03-07T14:59:21.596Z,67.10
2018-03-07T15:01:48.816Z,63.90
2018-03-07T15:04:16.045Z,68.30
2018-03-07T15:06:43.289Z,67.93
2018-03-07T15:09:10.543Z,69.40
2018-03-07T15:11:37.766Z,86.67
2018-03-07T15:14:05.001Z,64.57
2018-03-07T15:16:32.253Z,71.93
2018-03-07T15:18:59.653Z,72.87
2018-03-07T15:21:26.872Z,82.33
2018-03-07T15:23:54.113Z,71.83
2018-03-07T15:26:21.391Z,77.67
2018-03-07T15:28:48.633Z,75.37
2018-03-07T15:31:15.857Z,71.37
2018-03-07T15:33:43.094Z,66.30
2018-03-07T15:36:10.319Z,86.33
2018-03-07T15:38:37.552Z,71.17
2018-03-07T15:41:04.781Z,70.57
2018-03-07T15:43:31.993Z,76.33
2018-03-07T15:45:59.228Z,64.23
2018-03-07T15:48:26.441Z,67.57
2018-03-07T15:50:55.525Z,63.80
2018-03-07T15:53:22.766Z,81.40
2018-03-07T15:55:51.141Z,78.63
2018-03-07T15:58:18.349Z,81.43
2018-03-07T16:00:45.573Z,78.03
2018-03-07T16:03:12.800Z,95.10
2018-03-07T16:05:40.752Z,90.53
2018-03-07T16:08:08.523Z,92.47
2018-03-07T16:10:37.045Z,93.67
2018-03-07T16:13:04.276Z,82.33
2018-03-07T16:15:31.500Z,83.07
2018-03-07T16:17:58.773Z,89.87
2018-03-07T16:20:26.004Z,77.77
2018-03-07T16:22:53.225Z,78.50
2018-03-07T16:25:20.450Z,78.10
2018-03-07T16:27:47.693Z,77.80
2018-03-07T16:30:15.573Z,78.33
2018-03-07T16:32:42.821Z,81.20
2018-03-07T16:35:10.066Z,82.20
2018-03-07T16:37:37.497Z,82.47
2018-03-07T16:40:13.073Z,74.20
2018-03-07T16:42:40.330Z,82.13
2018-03-07T16:45:13.497Z,79.67
2018-03-07T16:47:40.758Z,97.87
2018-03-07T16:50:14.240Z,82.67
2018-03-07T16:52:41.452Z,95.23
2018-03-07T16:55:15.174Z,91.83
2018-03-07T16:57:42.401Z,111.17
2018-03-07T17:00:12.497Z,92.80
2018-03-07T17:02:39.721Z,54.57
2018-03-07T17:05:13.709Z,58.83
2018-03-07T17:07:41.466Z,85.33
2018-03-07T17:10:10.929Z,85.63
2018-03-07T17:12:38.169Z,87.97
2018-03-07T17:15:13.233Z,90.40
2018-03-07T17:17:40.478Z,81.07
2018-03-07T17:20:11.702Z,61.53
2018-03-07T17:22:38.916Z,61.17
2018-03-07T17:25:09.929Z,63.43
2018-03-07T17:27:37.769Z,73.43
2018-03-07T17:30:06.343Z,54.27
2018-03-07T17:32:37.648Z,72.37
2018-03-07T17:35:07.512Z,65.97
2018-03-07T17:37:34.761Z,72.60
2018-03-07T17:40:02.017Z,60.17
2018-03-07T17:42:29.245Z,52.53
2018-03-07T17:44:56.475Z,43.93
2018-03-07T17:47:23.693Z,32.67
2018-03-07T17:49:50.973Z,18.60
2018-03-07T17:52:18.868Z,15.40
2018-03-07T17:54:46.448Z,15.77
2018-03-07T17:57:14.393Z,16.03
2018-03-07T17:59:41.622Z,17.67
2018-03-07T18:02:08.845Z,22.97
2018-03-07T18:04:36.098Z,14.37
2018-03-07T18:07:03.315Z,14.03
2018-03-07T18:09:30.521Z,18.23
2018-03-07T18:11:57.778Z,17.57
2018-03-07T18:14:25.009Z,14.13
2018-03-07T18:16:52.965Z,19.87
2018-03-07T18:19:20.804Z,18.17
2018-03-07T18:21:48.017Z,22.83
2018-03-07T18:24:15.228Z,15.33
2018-03-07T18:26:43.023Z,20.00
2018-03-07T18:29:10.266Z,15.03
2018-03-07T18:31:37.489Z,22.10
2018-03-07T18:34:04.526Z,17.93
2018-03-07T18:36:31.759Z,19.77
2018-03-07T18:38:59.032Z,23.60
2018-03-07T18:41:26.412Z,15.00
2018-03-07T18:43:53.634Z,19.17
2018-03-07T18:46:21.084Z,25.27
2018-03-07T18:48:48.301Z,19.20
2018-03-07T18:51:15.333Z,17.60
2018-03-07T18:53:42.540Z,31.40
2018-03-07T18:56:09.750Z,15.80
2018-03-07T18:58:36.966Z,22.00
2018-03-07T19:01:04.229Z,26.80
2018-03-07T19:03:31.506Z,97.90
2018-03-07T19:05:58.729Z,43.60
2018-03-07T19:08:26.495Z,37.83
2018-03-07T19:10:54.516Z,30.83
2018-03-07T19:13:21.749Z,21.73
2018-03-07T19:15:54.618Z,32.93
2018-03-07T19:18:22.029Z,37.57
2018-03-07T19:20:49.273Z,41.80
2018-03-07T19:23:16.505Z,19.43
2018-03-07T19:25:43.725Z,21.60
2018-03-07T19:28:11.478Z,19.43
2018-03-07T19:30:39.416Z,30.77
2018-03-07T19:33:06.455Z,21.03
2018-03-07T19:35:33.704Z,24.03
2018-03-07T19:38:00.954Z,36.63
2018-03-07T19:40:28.172Z,29.93
2018-03-07T19:42:56.069Z,20.67
2018-03-07T19:45:23.297Z,24.33
2018-03-07T19:47:50.521Z,18.03
2018-03-07T19:50:18.137Z,39.43
2018-03-07T19:52:45.431Z,28.13
2018-03-07T19:55:12.689Z,25.90
2018-03-07T19:57:39.909Z,22.50
2018-03-07T20:00:14.030Z,26.80
2018-03-07T20:02:41.432Z,23.40
2018-03-07T20:05:09.484Z,15.57
2018-03-07T20:07:36.715Z,21.90
2018-03-07T20:12:37.461Z,19.50
2018-03-07T20:17:38.729Z,16.70
2018-03-07T20:20:13.608Z,16.30
2018-03-07T20:22:40.840Z,24.67
2018-03-07T20:25:15.056Z,27.07
2018-03-07T20:27:42.284Z,24.90
2018-03-07T20:30:16.475Z,25.30
2018-03-07T20:32:43.737Z,12.40
2018-03-07T20:35:11.398Z,17.33
2018-03-07T20:37:39.402Z,19.50
2018-03-07T20:40:10.694Z,19.20
2018-03-07T20:42:38.019Z,28.67
2018-03-07T20:45:14.704Z,25.20
2018-03-07T20:47:42.220Z,32.50
2018-03-07T20:50:16.514Z,37.63
2018-03-07T20:52:43.800Z,36.63
2018-03-07T20:55:13.742Z,27.93
2018-03-07T20:57:40.990Z,25.63
2018-03-07T21:00:14.360Z,35.60
2018-03-07T21:02:41.622Z,28.73
2018-03-07T21:05:16.161Z,27.57
2018-03-07T21:07:43.405Z,29.97
2018-03-07T21:10:10.636Z,36.27
2018-03-07T21:12:37.938Z,34.13
2018-03-07T21:15:11.146Z,56.53
2018-03-07T21:17:38.757Z,28.35
2018-03-07T21:20:13.813Z,38.43
2018-03-07T21:22:41.054Z,26.00
2018-03-07T21:25:16.004Z,26.10
2018-03-07T21:27:43.262Z,27.10
2018-03-07T21:30:16.124Z,23.87
2018-03-07T21:32:43.373Z,15.40
2018-03-07T21:35:13.648Z,23.87
2018-03-07T21:37:40.872Z,29.77
2018-03-07T21:40:13.813Z,34.73
2018-03-07T21:42:41.040Z,33.90
2018-03-07T21:45:16.365Z,40.33
2018-03-07T21:47:43.604Z,38.90
2018-03-07T21:50:14.694Z,18.70
2018-03-07T21:52:41.991Z,20.63
2018-03-07T21:55:09.878Z,21.17
2018-03-07T21:57:37.939Z,16.80
2018-03-07T22:02:38.350Z,19.53
2018-03-07T22:05:15.342Z,19.10
2018-03-07T22:07:42.598Z,20.63
2018-03-07T22:10:15.258Z,20.03
2018-03-07T22:12:42.509Z,20.57
2018-03-07T22:15:16.000Z,24.40
2018-03-07T22:17:43.233Z,26.63
2018-03-07T22:20:14.387Z,19.30
2018-03-07T22:22:41.663Z,24.17
2018-03-07T22:25:09.844Z,35.70
2018-03-07T22:27:38.071Z,22.67
2018-03-07T22:30:09.107Z,21.47
2018-03-07T22:32:41.761Z,19.60
2018-03-07T22:35:17.469Z,20.03
2018-03-07T22:37:44.770Z,18.73
2018-03-07T22:40:20.400Z,16.50
2018-03-07T22:42:47.909Z,16.13
2018-03-07T22:45:16.478Z,21.77
2018-03-07T22:47:43.746Z,15.77
2018-03-07T22:50:10.992Z,18.17
2018-03-07T22:52:40.143Z,16.10
2018-03-07T22:55:10.640Z,14.43
2018-03-07T22:57:38.843Z,12.10
2018-03-07T23:00:14.550Z,11.10
2018-03-07T23:02:41.839Z,10.10
2018-03-07T23:05:15.489Z,9.20
2018-03-07T23:07:42.780Z,9.47
2018-03-07T23:10:15.622Z,9.27
2018-03-07T23:12:42.843Z,9.37
2018-03-07T23:15:12.396Z,11.60
2018-03-07T23:17:39.621Z,11.23
2018-03-07T23:20:15.557Z,7.23
2018-03-07T23:22:42.807Z,9.33
2018-03-07T23:25:16.926Z,9.77
2018-03-07T23:27:44.193Z,6.93
2018-03-07T23:30:15.172Z,6.70
2018-03-07T23:32:42.409Z,6.40
2018-03-07T23:35:16.697Z,9.20
2018-03-07T23:37:43.942Z,8.27
2018-03-07T23:40:14.879Z,6.93
2018-03-07T23:42:42.121Z,6.27
2018-03-07T23:45:15.590Z,6.50
2018-03-07T23:47:42.991Z,5.27
2018-03-07T23:50:15.788Z,5.13
2018-03-07T23:52:43.013Z,6.63
2018-03-07T23:55:17.077Z,6.13
2018-03-07T23:57:44.294Z,7.33
